sensor_id;sensor_type;location;lat;lon;timestamp;temperature;humidity
4564;DHT22;2294;51.818;8.484;2022-07-06T00:01:04;15.30;99.90
4564;DHT22;2294;51.818;8.484;2022-07-06T00:03:31;15.10;99.90
4564;DHT22;2294;51.818;8.484;2022-07-06T00:05:59;15.10;99.90
4564;DHT22;2294;51.818;8.484;2022-07-06T00:08:26;14.90;99.90
4564;DHT22;2294;51.818;8.484;2022-07-06T00:10:53;14.80;99.90
4564;DHT22;2294;51.818;8.484;2022-07-06T00:13:20;14.70;99.90
4564;DHT22;2294;51.818;8.484;2022-07-06T00:15:47;14.70;99.90
4564;DHT22;2294;51.818;8.484;2022-07-06T00:18:14;14.70;99.90
4564;DHT22;2294;51.818;8.484;2022-07-06T00:20:41;14.90;99.90
4564;DHT22;2294;51.818;8.484;2022-07-06T00:23:09;14.90;99.90
4564;DHT22;2294;51.818;8.484;2022-07-06T00:25:36;14.60;99.90
4564;DHT22;2294;51.818;8.484;2022-07-06T00:28:04;14.60;99.90
4564;DHT22;2294;51.818;8.484;2022-07-06T00:30:31;14.50;99.90
4564;DHT22;2294;51.818;8.484;2022-07-06T00:32:58;14.50;99.90
4564;DHT22;2294;51.818;8.484;2022-07-06T00:35:25;14.40;99.90
4564;DHT22;2294;51.818;8.484;2022-07-06T00:37:52;14.40;99.90
4564;DHT22;2294;51.818;8.484;2022-07-06T00:40:21;14.60;99.90
4564;DHT22;2294;51.818;8.484;2022-07-06T00:42:48;14.80;99.90
4564;DHT22;2294;51.818;8.484;2022-07-06T00:45:17;15.00;99.90
4564;DHT22;2294;51.818;8.484;2022-07-06T00:47:45;15.00;99.90
4564;DHT22;2294;51.818;8.484;2022-07-06T00:50:14;14.80;99.90
4564;DHT22;2294;51.818;8.484;2022-07-06T00:52:40;14.70;99.90
4564;DHT22;2294;51.818;8.484;2022-07-06T00:55:08;14.80;99.90
4564;DHT22;2294;51.818;8.484;2022-07-06T00:57:36;13.70;99.90
4564;DHT22;2294;51.818;8.484;2022-07-06T01:00:05;14.80;99.90
4564;DHT22;2294;51.818;8.484;2022-07-06T01:02:33;14.80;99.90
4564;DHT22;2294;51.818;8.484;2022-07-06T01:05:01;14.60;99.90
4564;DHT22;2294;51.818;8.484;2022-07-06T01:07:28;14.80;99.90
4564;DHT22;2294;51.818;8.484;2022-07-06T01:09:55;14.60;99.90
4564;DHT22;2294;51.818;8.484;2022-07-06T01:12:22;14.70;99.90
4564;DHT22;2294;51.818;8.484;2022-07-06T01:14:51;14.60;99.90
4564;DHT22;2294;51.818;8.484;2022-07-06T01:17:19;14.50;99.90
4564;DHT22;2294;51.818;8.484;2022-07-06T01:19:46;14.50;99.90
4564;DHT22;2294;51.818;8.484;2022-07-06T01:22:14;14.40;99.90
4564;DHT22;2294;51.818;8.484;2022-07-06T01:24:41;14.50;99.90
4564;DHT22;2294;51.818;8.484;2022-07-06T01:27:08;14.40;99.90
4564;DHT22;2294;51.818;8.484;2022-07-06T01:29:35;14.20;99.90
4564;DHT22;2294;51.818;8.484;2022-07-06T01:32:03;14.30;99.90
4564;DHT22;2294;51.818;8.484;2022-07-06T01:34:30;14.40;99.90
4564;DHT22;2294;51.818;8.484;2022-07-06T01:36:57;14.30;99.90
4564;DHT22;2294;51.818;8.484;2022-07-06T01:39:25;14.40;99.90
4564;DHT22;2294;51.818;8.484;2022-07-06T01:41:52;14.30;99.90
4564;DHT22;2294;51.818;8.484;2022-07-06T01:44:19;14.10;99.90
4564;DHT22;2294;51.818;8.484;2022-07-06T01:46:46;14.20;99.90
4564;DHT22;2294;51.818;8.484;2022-07-06T01:49:13;14.20;99.90
4564;DHT22;2294;51.818;8.484;2022-07-06T01:51:39;14.20;99.90
4564;DHT22;2294;51.818;8.484;2022-07-06T01:54:06;14.30;99.90
4564;DHT22;2294;51.818;8.484;2022-07-06T01:56:35;14.00;99.90
4564;DHT22;2294;51.818;8.484;2022-07-06T01:59:02;14.20;99.90
4564;DHT22;2294;51.818;8.484;2022-07-06T02:01:29;14.30;99.90
4564;DHT22;2294;51.818;8.484;2022-07-06T02:03:56;14.40;99.90
4564;DHT22;2294;51.818;8.484;2022-07-06T02:06:23;14.60;99.90
4564;DHT22;2294;51.818;8.484;2022-07-06T02:08:50;14.60;99.90
4564;DHT22;2294;51.818;8.484;2022-07-06T02:11:19;14.80;99.90
4564;DHT22;2294;51.818;8.484;2022-07-06T02:13:48;14.50;99.90
4564;DHT22;2294;51.818;8.484;2022-07-06T02:16:15;14.30;99.90
4564;DHT22;2294;51.818;8.484;2022-07-06T02:18:41;14.50;99.90
4564;DHT22;2294;51.818;8.484;2022-07-06T02:21:09;14.70;99.90
4564;DHT22;2294;51.818;8.484;2022-07-06T02:23:35;14.60;99.90
4564;DHT22;2294;51.818;8.484;2022-07-06T02:26:02;14.40;99.90
4564;DHT22;2294;51.818;8.484;2022-07-06T02:28:30;14.60;99.90
4564;DHT22;2294;51.818;8.484;2022-07-06T02:30:58;14.60;99.90
4564;DHT22;2294;51.818;8.484;2022-07-06T02:33:25;14.20;99.90
4564;DHT22;2294;51.818;8.484;2022-07-06T02:35:52;14.30;99.90
4564;DHT22;2294;51.818;8.484;2022-07-06T02:38:19;14.10;99.90
4564;DHT22;2294;51.818;8.484;2022-07-06T02:40:47;14.20;99.90
4564;DHT22;2294;51.818;8.484;2022-07-06T02:43:14;14.30;99.90
4564;DHT22;2294;51.818;8.484;2022-07-06T02:45:41;14.30;99.90
4564;DHT22;2294;51.818;8.484;2022-07-06T02:48:09;14.10;99.90
4564;DHT22;2294;51.818;8.484;2022-07-06T02:50:36;14.30;99.90
4564;DHT22;2294;51.818;8.484;2022-07-06T02:53:03;14.40;99.90
4564;DHT22;2294;51.818;8.484;2022-07-06T02:55:30;14.40;99.90
4564;DHT22;2294;51.818;8.484;2022-07-06T02:57:57;14.30;99.90
4564;DHT22;2294;51.818;8.484;2022-07-06T03:00:24;14.00;99.90
4564;DHT22;2294;51.818;8.484;2022-07-06T03:02:51;14.10;99.90
4564;DHT22;2294;51.818;8.484;2022-07-06T03:05:20;14.30;99.90
4564;DHT22;2294;51.818;8.484;2022-07-06T03:07:47;14.40;99.90
4564;DHT22;2294;51.818;8.484;2022-07-06T03:10:13;14.20;99.90
4564;DHT22;2294;51.818;8.484;2022-07-06T03:12:40;14.20;99.90
4564;DHT22;2294;51.818;8.484;2022-07-06T03:15:08;14.10;99.90
4564;DHT22;2294;51.818;8.484;2022-07-06T03:17:35;14.30;99.90
4564;DHT22;2294;51.818;8.484;2022-07-06T03:20:03;15.70;99.90
4564;DHT22;2294;51.818;8.484;2022-07-06T03:22:32;14.10;99.90
4564;DHT22;2294;51.818;8.484;2022-07-06T03:24:59;14.00;99.90
4564;DHT22;2294;51.818;8.484;2022-07-06T03:27:26;14.40;99.90
4564;DHT22;2294;51.818;8.484;2022-07-06T03:29:53;14.10;99.90
4564;DHT22;2294;51.818;8.484;2022-07-06T03:32:20;14.00;99.90
4564;DHT22;2294;51.818;8.484;2022-07-06T03:34:47;14.00;99.90
4564;DHT22;2294;51.818;8.484;2022-07-06T03:37:13;14.10;99.90
4564;DHT22;2294;51.818;8.484;2022-07-06T03:39:42;14.10;99.90
4564;DHT22;2294;51.818;8.484;2022-07-06T03:42:09;14.00;99.90
4564;DHT22;2294;51.818;8.484;2022-07-06T03:44:36;14.10;99.90
4564;DHT22;2294;51.818;8.484;2022-07-06T03:47:03;14.00;99.90
4564;DHT22;2294;51.818;8.484;2022-07-06T03:49:30;14.00;99.90
4564;DHT22;2294;51.818;8.484;2022-07-06T03:51:56;14.10;99.90
4564;DHT22;2294;51.818;8.484;2022-07-06T03:54:23;13.90;99.90
4564;DHT22;2294;51.818;8.484;2022-07-06T03:56:52;13.80;99.90
4564;DHT22;2294;51.818;8.484;2022-07-06T03:59:19;13.80;99.90
4564;DHT22;2294;51.818;8.484;2022-07-06T04:01:46;13.90;99.90
4564;DHT22;2294;51.818;8.484;2022-07-06T04:04:13;13.90;99.90
4564;DHT22;2294;51.818;8.484;2022-07-06T04:06:39;13.60;99.90
4564;DHT22;2294;51.818;8.484;2022-07-06T04:09:06;13.60;99.90
4564;DHT22;2294;51.818;8.484;2022-07-06T04:11:35;13.60;99.90
4564;DHT22;2294;51.818;8.484;2022-07-06T04:14:03;13.80;99.90
4564;DHT22;2294;51.818;8.484;2022-07-06T04:16:30;13.60;99.90
4564;DHT22;2294;51.818;8.484;2022-07-06T04:18:57;13.70;99.90
4564;DHT22;2294;51.818;8.484;2022-07-06T04:21:24;13.60;99.90
4564;DHT22;2294;51.818;8.484;2022-07-06T04:23:50;13.60;99.90
4564;DHT22;2294;51.818;8.484;2022-07-06T04:26:17;13.30;99.90
4564;DHT22;2294;51.818;8.484;2022-07-06T04:28:44;13.40;99.90
4564;DHT22;2294;51.818;8.484;2022-07-06T04:31:13;13.40;99.90
4564;DHT22;2294;51.818;8.484;2022-07-06T04:33:40;13.40;99.90
4564;DHT22;2294;51.818;8.484;2022-07-06T04:36:08;13.40;99.90
4564;DHT22;2294;51.818;8.484;2022-07-06T04:38:35;13.20;99.90
4564;DHT22;2294;51.818;8.484;2022-07-06T04:41:02;13.60;99.90
4564;DHT22;2294;51.818;8.484;2022-07-06T04:43:29;13.50;99.90
4564;DHT22;2294;51.818;8.484;2022-07-06T04:45:56;13.70;99.90
4564;DHT22;2294;51.818;8.484;2022-07-06T04:48:24;13.60;99.90
4564;DHT22;2294;51.818;8.484;2022-07-06T04:50:51;13.70;99.90
4564;DHT22;2294;51.818;8.484;2022-07-06T04:53:18;13.70;99.90
4564;DHT22;2294;51.818;8.484;2022-07-06T04:55:45;13.80;99.90
4564;DHT22;2294;51.818;8.484;2022-07-06T04:58:11;13.90;99.90
4564;DHT22;2294;51.818;8.484;2022-07-06T05:00:38;13.60;99.90
4564;DHT22;2294;51.818;8.484;2022-07-06T05:03:05;13.80;99.90
4564;DHT22;2294;51.818;8.484;2022-07-06T05:05:33;14.10;99.90
4564;DHT22;2294;51.818;8.484;2022-07-06T05:08:00;14.50;99.90
4564;DHT22;2294;51.818;8.484;2022-07-06T05:10:27;14.40;99.90
4564;DHT22;2294;51.818;8.484;2022-07-06T05:12:54;14.20;99.90
4564;DHT22;2294;51.818;8.484;2022-07-06T05:15:22;14.40;99.90
4564;DHT22;2294;51.818;8.484;2022-07-06T05:17:49;14.40;99.90
4564;DHT22;2294;51.818;8.484;2022-07-06T05:20:16;14.60;99.90
4564;DHT22;2294;51.818;8.484;2022-07-06T05:22:44;14.70;99.90
4564;DHT22;2294;51.818;8.484;2022-07-06T05:25:11;14.70;99.90
4564;DHT22;2294;51.818;8.484;2022-07-06T05:27:38;14.50;99.90
4564;DHT22;2294;51.818;8.484;2022-07-06T05:30:06;14.70;99.90
4564;DHT22;2294;51.818;8.484;2022-07-06T05:32:33;14.90;99.90
4564;DHT22;2294;51.818;8.484;2022-07-06T05:35:00;14.80;99.90
4564;DHT22;2294;51.818;8.484;2022-07-06T05:37:27;14.50;99.90
4564;DHT22;2294;51.818;8.484;2022-07-06T05:39:55;14.60;99.90
4564;DHT22;2294;51.818;8.484;2022-07-06T05:42:22;14.40;99.90
4564;DHT22;2294;51.818;8.484;2022-07-06T05:44:49;14.80;99.90
4564;DHT22;2294;51.818;8.484;2022-07-06T05:47:16;14.90;99.90
4564;DHT22;2294;51.818;8.484;2022-07-06T05:50:00;14.80;99.90
4564;DHT22;2294;51.818;8.484;2022-07-06T05:52:39;14.70;99.90
4564;DHT22;2294;51.818;8.484;2022-07-06T05:55:08;15.10;99.90
4564;DHT22;2294;51.818;8.484;2022-07-06T05:57:35;15.20;99.90
4564;DHT22;2294;51.818;8.484;2022-07-06T06:00:03;15.50;99.90
4564;DHT22;2294;51.818;8.484;2022-07-06T06:02:36;15.40;99.90
4564;DHT22;2294;51.818;8.484;2022-07-06T06:05:05;15.40;99.90
4564;DHT22;2294;51.818;8.484;2022-07-06T06:07:33;15.10;99.90
4564;DHT22;2294;51.818;8.484;2022-07-06T06:10:01;14.90;99.90
4564;DHT22;2294;51.818;8.484;2022-07-06T06:12:30;14.90;99.90
4564;DHT22;2294;51.818;8.484;2022-07-06T06:14:57;15.00;99.90
4564;DHT22;2294;51.818;8.484;2022-07-06T06:17:23;15.10;99.90
4564;DHT22;2294;51.818;8.484;2022-07-06T06:19:50;14.90;99.90
4564;DHT22;2294;51.818;8.484;2022-07-06T06:22:17;15.00;99.90
4564;DHT22;2294;51.818;8.484;2022-07-06T06:24:45;15.00;99.90
4564;DHT22;2294;51.818;8.484;2022-07-06T06:29:49;14.80;99.90
4564;DHT22;2294;51.818;8.484;2022-07-06T06:32:16;15.00;99.90
4564;DHT22;2294;51.818;8.484;2022-07-06T06:34:43;15.10;99.90
4564;DHT22;2294;51.818;8.484;2022-07-06T06:37:10;14.80;99.90
4564;DHT22;2294;51.818;8.484;2022-07-06T06:42:59;15.80;99.90
4564;DHT22;2294;51.818;8.484;2022-07-06T06:45:27;15.90;99.90
4564;DHT22;2294;51.818;8.484;2022-07-06T06:47:54;15.90;99.90
4564;DHT22;2294;51.818;8.484;2022-07-06T06:50:21;16.10;99.90
4564;DHT22;2294;51.818;8.484;2022-07-06T06:52:49;16.10;99.90
4564;DHT22;2294;51.818;8.484;2022-07-06T06:55:16;16.20;99.90
4564;DHT22;2294;51.818;8.484;2022-07-06T06:57:44;15.70;99.90
4564;DHT22;2294;51.818;8.484;2022-07-06T07:00:11;15.60;99.90
4564;DHT22;2294;51.818;8.484;2022-07-06T07:02:40;15.80;99.90
4564;DHT22;2294;51.818;8.484;2022-07-06T07:05:08;15.70;99.90
4564;DHT22;2294;51.818;8.484;2022-07-06T07:07:35;15.60;99.90
4564;DHT22;2294;51.818;8.484;2022-07-06T07:10:02;15.80;99.90
4564;DHT22;2294;51.818;8.484;2022-07-06T07:12:29;15.80;99.90
4564;DHT22;2294;51.818;8.484;2022-07-06T07:14:56;15.90;99.90
4564;DHT22;2294;51.818;8.484;2022-07-06T07:17:23;15.80;99.90
4564;DHT22;2294;51.818;8.484;2022-07-06T07:19:51;16.00;99.90
4564;DHT22;2294;51.818;8.484;2022-07-06T07:22:18;16.30;99.90
4564;DHT22;2294;51.818;8.484;2022-07-06T07:24:45;16.70;99.90
4564;DHT22;2294;51.818;8.484;2022-07-06T07:27:13;16.70;99.90
4564;DHT22;2294;51.818;8.484;2022-07-06T07:29:39;16.80;99.90
4564;DHT22;2294;51.818;8.484;2022-07-06T07:32:07;16.60;99.90
4564;DHT22;2294;51.818;8.484;2022-07-06T07:34:34;16.80;99.90
4564;DHT22;2294;51.818;8.484;2022-07-06T07:37:02;17.10;99.90
4564;DHT22;2294;51.818;8.484;2022-07-06T07:39:29;17.00;99.90
4564;DHT22;2294;51.818;8.484;2022-07-06T07:41:56;17.20;99.90
4564;DHT22;2294;51.818;8.484;2022-07-06T07:44:23;17.30;99.90
4564;DHT22;2294;51.818;8.484;2022-07-06T07:46:50;17.30;99.90
4564;DHT22;2294;51.818;8.484;2022-07-06T07:49:18;16.90;99.90
4564;DHT22;2294;51.818;8.484;2022-07-06T07:51:46;17.30;99.90
4564;DHT22;2294;51.818;8.484;2022-07-06T07:54:14;17.80;99.90
4564;DHT22;2294;51.818;8.484;2022-07-06T07:56:42;17.10;99.90
4564;DHT22;2294;51.818;8.484;2022-07-06T07:59:09;17.30;99.90
4564;DHT22;2294;51.818;8.484;2022-07-06T08:01:36;17.00;99.90
4564;DHT22;2294;51.818;8.484;2022-07-06T08:04:03;16.60;99.90
4564;DHT22;2294;51.818;8.484;2022-07-06T08:06:30;16.90;99.90
4564;DHT22;2294;51.818;8.484;2022-07-06T08:08:57;16.80;99.90
4564;DHT22;2294;51.818;8.484;2022-07-06T08:11:26;16.90;99.90
4564;DHT22;2294;51.818;8.484;2022-07-06T08:13:52;17.20;99.90
4564;DHT22;2294;51.818;8.484;2022-07-06T08:16:19;17.20;99.90
4564;DHT22;2294;51.818;8.484;2022-07-06T08:18:46;17.10;99.90
4564;DHT22;2294;51.818;8.484;2022-07-06T08:21:13;17.10;99.90
4564;DHT22;2294;51.818;8.484;2022-07-06T08:23:40;17.00;99.90
4564;DHT22;2294;51.818;8.484;2022-07-06T08:26:07;17.20;99.90
4564;DHT22;2294;51.818;8.484;2022-07-06T08:28:36;17.10;99.90
4564;DHT22;2294;51.818;8.484;2022-07-06T08:31:03;17.00;99.90
4564;DHT22;2294;51.818;8.484;2022-07-06T08:33:30;17.80;99.90
4564;DHT22;2294;51.818;8.484;2022-07-06T08:35:56;17.60;99.90
4564;DHT22;2294;51.818;8.484;2022-07-06T08:38:24;17.80;99.90
4564;DHT22;2294;51.818;8.484;2022-07-06T08:40:51;17.70;99.90
4564;DHT22;2294;51.818;8.484;2022-07-06T08:43:18;17.60;99.90
4564;DHT22;2294;51.818;8.484;2022-07-06T08:45:50;16.70;99.90
4564;DHT22;2294;51.818;8.484;2022-07-06T08:48:23;17.40;99.90
4564;DHT22;2294;51.818;8.484;2022-07-06T08:50:50;17.20;99.90
4564;DHT22;2294;51.818;8.484;2022-07-06T08:53:18;17.70;99.90
4564;DHT22;2294;51.818;8.484;2022-07-06T08:55:47;17.60;99.90
4564;DHT22;2294;51.818;8.484;2022-07-06T08:58:16;17.50;99.90
4564;DHT22;2294;51.818;8.484;2022-07-06T09:00:43;17.60;99.90
4564;DHT22;2294;51.818;8.484;2022-07-06T09:03:12;17.80;99.90
4564;DHT22;2294;51.818;8.484;2022-07-06T09:05:40;18.40;99.90
4564;DHT22;2294;51.818;8.484;2022-07-06T09:08:07;18.40;99.90
4564;DHT22;2294;51.818;8.484;2022-07-06T09:10:34;18.40;99.90
4564;DHT22;2294;51.818;8.484;2022-07-06T09:13:04;17.90;99.90
4564;DHT22;2294;51.818;8.484;2022-07-06T09:15:32;17.20;99.90
4564;DHT22;2294;51.818;8.484;2022-07-06T09:17:59;17.40;99.90
4564;DHT22;2294;51.818;8.484;2022-07-06T09:20:27;16.60;99.90
4564;DHT22;2294;51.818;8.484;2022-07-06T09:22:57;16.70;99.90
4564;DHT22;2294;51.818;8.484;2022-07-06T09:25:26;16.60;99.90
4564;DHT22;2294;51.818;8.484;2022-07-06T09:27:53;16.60;99.90
4564;DHT22;2294;51.818;8.484;2022-07-06T09:30:22;16.70;99.90
4564;DHT22;2294;51.818;8.484;2022-07-06T09:32:51;16.50;99.90
4564;DHT22;2294;51.818;8.484;2022-07-06T09:35:22;16.40;99.90
4564;DHT22;2294;51.818;8.484;2022-07-06T09:38:06;16.30;99.90
4564;DHT22;2294;51.818;8.484;2022-07-06T09:40:34;16.60;99.90
4564;DHT22;2294;51.818;8.484;2022-07-06T09:43:13;16.30;99.90
4564;DHT22;2294;51.818;8.484;2022-07-06T09:45:41;16.50;99.90
4564;DHT22;2294;51.818;8.484;2022-07-06T09:48:10;16.40;99.90
4564;DHT22;2294;51.818;8.484;2022-07-06T09:50:41;16.20;99.90
4564;DHT22;2294;51.818;8.484;2022-07-06T09:53:10;16.30;99.90
4564;DHT22;2294;51.818;8.484;2022-07-06T09:55:38;16.50;99.90
4564;DHT22;2294;51.818;8.484;2022-07-06T09:58:05;17.10;99.90
4564;DHT22;2294;51.818;8.484;2022-07-06T10:00:32;17.40;99.90
4564;DHT22;2294;51.818;8.484;2022-07-06T10:03:00;17.10;99.90
4564;DHT22;2294;51.818;8.484;2022-07-06T10:05:27;17.10;99.90
4564;DHT22;2294;51.818;8.484;2022-07-06T10:07:58;17.60;99.90
4564;DHT22;2294;51.818;8.484;2022-07-06T10:10:28;17.70;99.90
4564;DHT22;2294;51.818;8.484;2022-07-06T10:12:56;17.90;99.90
4564;DHT22;2294;51.818;8.484;2022-07-06T10:15:26;17.90;99.90
4564;DHT22;2294;51.818;8.484;2022-07-06T10:17:53;18.20;99.90
4564;DHT22;2294;51.818;8.484;2022-07-06T10:20:21;18.20;99.90
4564;DHT22;2294;51.818;8.484;2022-07-06T10:22:49;18.20;99.90
4564;DHT22;2294;51.818;8.484;2022-07-06T10:25:16;17.80;99.90
4564;DHT22;2294;51.818;8.484;2022-07-06T10:27:46;17.40;99.90
4564;DHT22;2294;51.818;8.484;2022-07-06T10:30:14;17.40;99.90
4564;DHT22;2294;51.818;8.484;2022-07-06T10:32:43;17.50;99.90
4564;DHT22;2294;51.818;8.484;2022-07-06T10:35:11;16.90;99.90
4564;DHT22;2294;51.818;8.484;2022-07-06T10:37:38;17.00;99.90
4564;DHT22;2294;51.818;8.484;2022-07-06T10:40:06;16.80;99.90
4564;DHT22;2294;51.818;8.484;2022-07-06T10:42:56;16.90;99.90
4564;DHT22;2294;51.818;8.484;2022-07-06T10:45:50;16.80;99.90
4564;DHT22;2294;51.818;8.484;2022-07-06T10:48:19;16.80;99.90
4564;DHT22;2294;51.818;8.484;2022-07-06T10:50:51;16.70;99.90
4564;DHT22;2294;51.818;8.484;2022-07-06T10:53:22;16.80;99.90
4564;DHT22;2294;51.818;8.484;2022-07-06T10:55:51;17.00;99.90
4564;DHT22;2294;51.818;8.484;2022-07-06T10:58:40;17.20;99.90
4564;DHT22;2294;51.818;8.484;2022-07-06T11:01:08;17.70;99.90
4564;DHT22;2294;51.818;8.484;2022-07-06T11:03:41;17.80;99.90
4564;DHT22;2294;51.818;8.484;2022-07-06T11:06:11;17.90;99.90
4564;DHT22;2294;51.818;8.484;2022-07-06T11:08:54;18.00;99.90
4564;DHT22;2294;51.818;8.484;2022-07-06T11:11:24;17.90;99.90
4564;DHT22;2294;51.818;8.484;2022-07-06T11:13:54;18.00;99.90
4564;DHT22;2294;51.818;8.484;2022-07-06T11:16:23;18.40;99.90
4564;DHT22;2294;51.818;8.484;2022-07-06T11:19:00;18.10;99.90
4564;DHT22;2294;51.818;8.484;2022-07-06T11:21:46;18.40;99.90
4564;DHT22;2294;51.818;8.484;2022-07-06T11:24:15;18.40;99.90
4564;DHT22;2294;51.818;8.484;2022-07-06T11:26:44;18.70;99.90
4564;DHT22;2294;51.818;8.484;2022-07-06T11:29:14;18.80;99.90
4564;DHT22;2294;51.818;8.484;2022-07-06T11:31:44;19.00;99.90
4564;DHT22;2294;51.818;8.484;2022-07-06T11:34:13;19.00;99.90
4564;DHT22;2294;51.818;8.484;2022-07-06T11:36:41;19.00;99.90
4564;DHT22;2294;51.818;8.484;2022-07-06T11:39:08;19.80;99.90
4564;DHT22;2294;51.818;8.484;2022-07-06T11:41:35;19.80;99.90
4564;DHT22;2294;51.818;8.484;2022-07-06T11:44:03;20.80;99.90
4564;DHT22;2294;51.818;8.484;2022-07-06T11:46:32;19.60;99.90
4564;DHT22;2294;51.818;8.484;2022-07-06T11:49:02;19.50;99.90
4564;DHT22;2294;51.818;8.484;2022-07-06T11:51:30;18.90;99.90
4564;DHT22;2294;51.818;8.484;2022-07-06T11:53:59;19.20;99.90
4564;DHT22;2294;51.818;8.484;2022-07-06T11:56:27;20.00;99.90
4564;DHT22;2294;51.818;8.484;2022-07-06T11:58:56;19.80;99.90
4564;DHT22;2294;51.818;8.484;2022-07-06T12:01:24;19.80;99.90
4564;DHT22;2294;51.818;8.484;2022-07-06T12:03:57;20.00;99.90
4564;DHT22;2294;51.818;8.484;2022-07-06T12:06:25;19.70;99.90
4564;DHT22;2294;51.818;8.484;2022-07-06T12:08:54;19.80;99.90
4564;DHT22;2294;51.818;8.484;2022-07-06T12:11:23;20.10;99.90
4564;DHT22;2294;51.818;8.484;2022-07-06T12:13:51;20.00;99.90
4564;DHT22;2294;51.818;8.484;2022-07-06T12:16:19;20.90;99.90
4564;DHT22;2294;51.818;8.484;2022-07-06T12:18:47;20.60;99.90
4564;DHT22;2294;51.818;8.484;2022-07-06T12:21:18;20.40;99.90
4564;DHT22;2294;51.818;8.484;2022-07-06T12:23:50;20.00;99.90
4564;DHT22;2294;51.818;8.484;2022-07-06T12:26:19;20.00;99.90
4564;DHT22;2294;51.818;8.484;2022-07-06T12:28:47;19.70;99.90
4564;DHT22;2294;51.818;8.484;2022-07-06T12:31:35;20.20;99.90
4564;DHT22;2294;51.818;8.484;2022-07-06T12:34:02;20.90;99.90
4564;DHT22;2294;51.818;8.484;2022-07-06T12:36:31;21.10;99.90
4564;DHT22;2294;51.818;8.484;2022-07-06T12:39:10;20.70;99.90
4564;DHT22;2294;51.818;8.484;2022-07-06T12:41:41;19.90;99.90
4564;DHT22;2294;51.818;8.484;2022-07-06T12:44:10;19.60;99.90
4564;DHT22;2294;51.818;8.484;2022-07-06T12:46:38;19.40;99.90
4564;DHT22;2294;51.818;8.484;2022-07-06T12:49:14;19.70;99.90
4564;DHT22;2294;51.818;8.484;2022-07-06T12:51:54;20.10;99.90
4564;DHT22;2294;51.818;8.484;2022-07-06T12:54:22;20.20;99.90
4564;DHT22;2294;51.818;8.484;2022-07-06T12:57:03;20.40;99.90
4564;DHT22;2294;51.818;8.484;2022-07-06T12:59:32;20.90;99.90
4564;DHT22;2294;51.818;8.484;2022-07-06T13:02:00;20.50;99.90
4564;DHT22;2294;51.818;8.484;2022-07-06T13:04:28;20.40;99.90
4564;DHT22;2294;51.818;8.484;2022-07-06T13:06:59;20.60;99.90
4564;DHT22;2294;51.818;8.484;2022-07-06T13:09:26;20.50;99.90
4564;DHT22;2294;51.818;8.484;2022-07-06T13:11:53;21.50;99.90
4564;DHT22;2294;51.818;8.484;2022-07-06T13:14:20;21.50;99.90
4564;DHT22;2294;51.818;8.484;2022-07-06T13:16:48;21.00;99.90
4564;DHT22;2294;51.818;8.484;2022-07-06T13:19:15;20.40;99.90
4564;DHT22;2294;51.818;8.484;2022-07-06T13:21:42;20.30;99.90
4564;DHT22;2294;51.818;8.484;2022-07-06T13:24:11;19.90;99.90
4564;DHT22;2294;51.818;8.484;2022-07-06T13:26:39;20.00;99.90
4564;DHT22;2294;51.818;8.484;2022-07-06T13:29:06;20.30;99.90
4564;DHT22;2294;51.818;8.484;2022-07-06T13:31:33;20.60;99.90
4564;DHT22;2294;51.818;8.484;2022-07-06T13:34:00;20.60;99.90
4564;DHT22;2294;51.818;8.484;2022-07-06T13:36:27;20.50;99.90
4564;DHT22;2294;51.818;8.484;2022-07-06T13:38:54;20.90;99.90
4564;DHT22;2294;51.818;8.484;2022-07-06T13:41:22;21.00;99.90
4564;DHT22;2294;51.818;8.484;2022-07-06T13:43:49;20.90;99.90
4564;DHT22;2294;51.818;8.484;2022-07-06T13:46:16;20.30;99.90
4564;DHT22;2294;51.818;8.484;2022-07-06T13:48:44;20.50;99.90
4564;DHT22;2294;51.818;8.484;2022-07-06T13:51:11;20.90;99.90
4564;DHT22;2294;51.818;8.484;2022-07-06T13:53:37;20.60;99.90
4564;DHT22;2294;51.818;8.484;2022-07-06T13:56:05;21.90;99.90
4564;DHT22;2294;51.818;8.484;2022-07-06T13:58:34;23.00;99.90
4564;DHT22;2294;51.818;8.484;2022-07-06T14:01:02;22.80;99.90
4564;DHT22;2294;51.818;8.484;2022-07-06T14:03:28;22.10;99.90
4564;DHT22;2294;51.818;8.484;2022-07-06T14:05:56;22.30;99.90
4564;DHT22;2294;51.818;8.484;2022-07-06T14:08:24;23.60;99.90
4564;DHT22;2294;51.818;8.484;2022-07-06T14:10:51;23.10;99.90
4564;DHT22;2294;51.818;8.484;2022-07-06T14:13:18;22.70;99.90
4564;DHT22;2294;51.818;8.484;2022-07-06T14:15:47;22.90;99.90
4564;DHT22;2294;51.818;8.484;2022-07-06T14:18:14;23.10;99.90
4564;DHT22;2294;51.818;8.484;2022-07-06T14:20:43;22.40;99.90
4564;DHT22;2294;51.818;8.484;2022-07-06T14:23:10;21.60;99.90
4564;DHT22;2294;51.818;8.484;2022-07-06T14:25:37;21.90;99.90
4564;DHT22;2294;51.818;8.484;2022-07-06T14:28:05;21.80;99.90
4564;DHT22;2294;51.818;8.484;2022-07-06T14:30:32;21.30;99.90
4564;DHT22;2294;51.818;8.484;2022-07-06T14:33:01;21.10;99.90
4564;DHT22;2294;51.818;8.484;2022-07-06T14:35:28;21.50;99.90
4564;DHT22;2294;51.818;8.484;2022-07-06T14:37:55;22.30;99.90
4564;DHT22;2294;51.818;8.484;2022-07-06T14:40:22;23.70;99.90
4564;DHT22;2294;51.818;8.484;2022-07-06T14:42:49;25.20;99.90
4564;DHT22;2294;51.818;8.484;2022-07-06T14:45:16;24.10;99.90
4564;DHT22;2294;51.818;8.484;2022-07-06T14:47:43;22.80;99.90
4564;DHT22;2294;51.818;8.484;2022-07-06T14:50:11;23.80;99.90
4564;DHT22;2294;51.818;8.484;2022-07-06T14:52:38;23.80;99.90
4564;DHT22;2294;51.818;8.484;2022-07-06T14:55:05;26.80;99.90
4564;DHT22;2294;51.818;8.484;2022-07-06T14:57:35;26.50;99.90
4564;DHT22;2294;51.818;8.484;2022-07-06T15:00:03;25.30;99.90
4564;DHT22;2294;51.818;8.484;2022-07-06T15:02:30;26.80;99.90
4564;DHT22;2294;51.818;8.484;2022-07-06T15:04:57;26.80;99.90
4564;DHT22;2294;51.818;8.484;2022-07-06T15:07:25;28.00;99.90
4564;DHT22;2294;51.818;8.484;2022-07-06T15:09:52;24.40;99.90
4564;DHT22;2294;51.818;8.484;2022-07-06T15:12:19;22.50;99.90
4564;DHT22;2294;51.818;8.484;2022-07-06T15:14:46;22.20;99.90
4564;DHT22;2294;51.818;8.484;2022-07-06T15:17:13;22.00;99.90
4564;DHT22;2294;51.818;8.484;2022-07-06T15:19:42;21.30;99.90
4564;DHT22;2294;51.818;8.484;2022-07-06T15:22:09;21.40;99.90
4564;DHT22;2294;51.818;8.484;2022-07-06T15:24:37;21.30;99.90
4564;DHT22;2294;51.818;8.484;2022-07-06T15:27:05;21.30;99.90
4564;DHT22;2294;51.818;8.484;2022-07-06T15:29:33;21.40;99.90
4564;DHT22;2294;51.818;8.484;2022-07-06T15:32:00;21.40;99.90
4564;DHT22;2294;51.818;8.484;2022-07-06T15:34:27;21.60;99.90
4564;DHT22;2294;51.818;8.484;2022-07-06T15:36:54;21.70;99.90
4564;DHT22;2294;51.818;8.484;2022-07-06T15:39:21;21.60;99.90
4564;DHT22;2294;51.818;8.484;2022-07-06T15:41:50;21.80;99.90
4564;DHT22;2294;51.818;8.484;2022-07-06T15:44:17;21.00;99.90
4564;DHT22;2294;51.818;8.484;2022-07-06T15:46:43;21.40;99.90
4564;DHT22;2294;51.818;8.484;2022-07-06T15:49:12;21.80;99.90
4564;DHT22;2294;51.818;8.484;2022-07-06T15:51:39;21.60;99.90
4564;DHT22;2294;51.818;8.484;2022-07-06T15:54:06;20.90;99.90
4564;DHT22;2294;51.818;8.484;2022-07-06T15:56:33;21.10;99.90
4564;DHT22;2294;51.818;8.484;2022-07-06T15:59:01;20.70;99.90
4564;DHT22;2294;51.818;8.484;2022-07-06T16:01:28;20.90;99.90
4564;DHT22;2294;51.818;8.484;2022-07-06T16:03:55;21.40;99.90
4564;DHT22;2294;51.818;8.484;2022-07-06T16:06:22;22.50;99.90
4564;DHT22;2294;51.818;8.484;2022-07-06T16:08:49;24.20;99.90
4564;DHT22;2294;51.818;8.484;2022-07-06T16:11:16;24.40;99.90
4564;DHT22;2294;51.818;8.484;2022-07-06T16:13:44;22.80;99.90